Time;durP1;ratioP1;P1;durP2;ratioP2;P2;SDS_P1;SDS_P2;PMS_P1;PMS_P2;Temp;Humidity;BMP_temperature;BMP_pressure;BME280_temperature;BME280_humidity;BME280_pressure;Samples;Min_cycle;Max_cycle;Signal;HPM_P1;HPM_P2
2022/01/24 00:00:59;;;;;;;;;15.25;13.50;;;;;20.20;29.48;102697.59;5076728;27;45348;-58
2022/01/24 00:03:25;;;;;;;;;10.25;10.25;;;;;20.22;29.51;102696.66;5076882;27;45415;-59
2022/01/24 00:05:51;;;;;;;;;12.25;12.25;;;;;20.25;29.72;102700.97;5076979;27;45276;-58
2022/01/24 00:08:16;;;;;;;;;11.50;11.00;;;;;20.28;29.33;102700.91;5076735;27;46398;-59
2022/01/24 00:10:45;;;;;;;;;12.25;10.25;;;;;20.32;29.19;102696.41;5076688;28;45389;-58
2022/01/24 00:18:28;;;;;;;;;15.25;11.00;;;;;20.45;29.10;102687.31;5076846;27;45371;-52
2022/01/24 00:29:05;;;;;;;;;10.75;10.50;;;;;20.60;29.41;102679.94;5076330;28;45473;-53
2022/01/24 00:31:30;;;;;;;;;13.00;12.25;;;;;20.61;29.03;102671.97;5076342;27;45260;-58
2022/01/24 00:33:55;;;;;;;;;10.00;10.00;;;;;20.64;28.91;102669.25;5078514;27;45335;-51
2022/01/24 00:36:21;;;;;;;;;11.00;11.00;;;;;20.66;29.60;102670.09;5080282;27;45359;-55
2022/01/24 00:38:46;;;;;;;;;11.25;9.50;;;;;20.67;29.29;102671.78;5080288;27;46608;-58
2022/01/24 00:41:15;;;;;;;;;9.50;9.50;;;;;20.69;29.27;102659.44;5080060;27;45290;-60
2022/01/24 00:46:33;;;;;;;;;12.75;11.50;;;;;20.72;29.19;102665.53;5080186;27;45366;-56
2022/01/24 00:54:48;;;;;;;;;12.25;10.25;;;;;20.73;29.19;102657.59;5079792;27;45236;-56
2022/01/24 00:57:13;;;;;;;;;10.25;10.25;;;;;20.75;28.98;102657.59;5079806;27;45474;-53
2022/01/24 00:59:39;;;;;;;;;7.25;5.00;;;;;20.73;28.72;102648.84;5078167;27;45671;-49
2022/01/24 01:02:06;;;;;;;;;10.25;8.00;;;;;20.74;28.55;102651.44;5095142;27;45354;-55
2022/01/24 01:07:51;;;;;;;;;13.25;12.50;;;;;20.74;29.21;102647.94;5078366;27;45420;-58
2022/01/24 01:18:28;;;;;;;;;9.75;9.75;;;;;20.72;28.76;102657.63;5079470;27;45453;-54
2022/01/24 01:23:19;;;;;;;;;12.75;11.25;;;;;20.70;28.77;102653.28;5079504;27;45451;-59
2022/01/24 01:25:45;;;;;;;;;10.50;9.75;;;;;20.70;28.71;102649.78;5079290;27;45321;-58
2022/01/24 01:28:12;;;;;;;;;13.75;11.00;;;;;20.70;28.93;102649.78;5079654;27;45518;-55
2022/01/24 01:30:42;;;;;;;;;12.50;10.00;;;;;20.69;29.08;102648.06;5078986;28;47158;-55
2022/01/24 01:33:23;;;;;;;;;12.75;10.00;;;;;20.68;29.20;102649.81;5078830;27;45480;-56
2022/01/24 01:57:16;;;;;;;;;11.25;10.00;;;;;20.58;29.29;102644.84;5078938;27;45515;-58
2022/01/24 01:59:43;;;;;;;;;10.00;10.00;;;;;20.54;29.19;102644.91;5078779;27;45319;-55
2022/01/24 02:02:08;;;;;;;;;10.00;10.00;;;;;20.54;28.97;102649.34;5078590;27;46868;-50
2022/01/24 02:04:34;;;;;;;;;11.50;10.00;;;;;20.51;29.11;102649.41;5078447;27;45456;-59
2022/01/24 02:07:00;;;;;;;;;10.00;10.00;;;;;20.49;28.85;102645.94;5078494;28;45309;-56
2022/01/24 02:09:30;;;;;;;;;12.25;10.00;;;;;20.51;29.35;102655.53;5078631;27;45366;-58
2022/01/24 02:11:56;;;;;;;;;13.25;13.25;;;;;20.50;29.06;102647.69;5078030;27;45401;-56
2022/01/24 02:14:25;;;;;;;;;12.50;10.25;;;;;20.48;28.98;102654.75;5078619;27;45232;-59
2022/01/24 02:16:57;;;;;;;;;13.00;9.75;;;;;20.45;28.95;102645.16;5078846;27;45386;-58
2022/01/24 02:24:41;;;;;;;;;11.25;9.25;;;;;20.43;28.82;102646.13;5077909;27;45405;-54
2022/01/24 02:27:08;;;;;;;;;8.25;8.25;;;;;20.41;29.35;102643.50;5078307;27;45237;-54
2022/01/24 02:29:54;;;;;;;;;12.00;11.00;;;;;20.39;28.94;102642.72;5078358;27;45528;-56
2022/01/24 02:32:19;;;;;;;;;10.50;10.50;;;;;20.37;28.83;102632.19;5078226;27;46754;-51
2022/01/24 02:34:48;;;;;;;;;8.75;8.00;;;;;20.35;29.42;102634.00;5077960;27;45209;-53
2022/01/24 02:37:17;;;;;;;;;12.00;10.25;;;;;20.34;29.43;102631.41;5078110;27;45381;-53
2022/01/24 02:39:50;;;;;;;;;10.50;10.50;;;;;20.32;28.78;102625.31;5078224;27;45460;-58
2022/01/24 02:53:27;;;;;;;;;11.00;11.00;;;;;20.18;29.06;102620.41;5077632;28;45325;-55
2022/01/24 02:55:53;;;;;;;;;11.25;10.75;;;;;20.16;29.49;102612.56;5077045;27;45249;-56
2022/01/24 02:58:19;;;;;;;;;10.75;10.25;;;;;20.14;29.31;102616.13;5077860;27;45409;-55
2022/01/24 03:00:46;;;;;;;;;11.00;10.00;;;;;20.13;29.05;102612.63;5078027;27;45554;-57
2022/01/24 03:03:12;;;;;;;;;11.75;11.00;;;;;20.11;29.47;102605.69;5077526;27;46068;-58
2022/01/24 03:05:38;;;;;;;;;14.50;13.75;;;;;20.11;29.47;102605.69;5077396;27;45391;-58
2022/01/24 03:08:05;;;;;;;;;13.75;13.00;;;;;20.12;29.12;102604.78;5077469;27;45402;-58
2022/01/24 03:10:40;;;;;;;;;11.50;10.75;;;;;20.13;29.60;102607.38;5077647;27;45288;-57
2022/01/24 03:15:34;;;;;;;;;12.75;11.00;;;;;20.21;29.08;102610.66;5077352;27;45279;-54
2022/01/24 03:17:59;;;;;;;;;11.50;11.50;;;;;20.26;29.22;102612.31;5077399;27;45382;-58
2022/01/24 03:20:25;;;;;;;;;11.50;11.25;;;;;20.28;29.18;102600.00;5077929;27;45559;-58
2022/01/24 03:22:50;;;;;;;;;11.50;10.75;;;;;20.30;28.98;102604.31;5075877;27;48522;-57
2022/01/24 03:25:15;;;;;;;;;13.25;12.75;;;;;20.36;29.56;102598.88;5077152;27;45245;-54
2022/01/24 03:27:40;;;;;;;;;10.50;10.50;;;;;20.39;29.38;102598.78;5077522;27;45428;-58
2022/01/24 03:30:07;;;;;;;;;14.00;9.75;;;;;20.43;29.29;102596.09;5077361;27;45504;-53
2022/01/24 03:32:32;;;;;;;;;14.50;11.25;;;;;20.47;28.87;102597.72;5077222;27;45652;-50
2022/01/24 03:34:57;;;;;;;;;13.50;12.75;;;;;20.50;28.75;102595.00;5076600;27;53008;-50
2022/01/24 03:37:23;;;;;;;;;12.25;9.75;;;;;20.52;29.22;102598.47;5077497;27;45396;-52
2022/01/24 03:39:48;;;;;;;;;9.25;6.50;;;;;20.53;29.21;102590.50;5077290;27;45549;-56
2022/01/24 03:42:13;;;;;;;;;12.00;10.75;;;;;20.57;29.22;102586.00;5076804;27;46980;-54
2022/01/24 03:44:39;;;;;;;;;12.50;10.25;;;;;20.58;28.67;102593.00;5076892;27;45381;-55
2022/01/24 03:47:30;;;;;;;;;14.50;12.75;;;;;20.60;28.83;102583.31;5076882;27;45341;-57
2022/01/24 03:49:56;;;;;;;;;11.00;10.50;;;;;20.61;28.80;102582.41;5077722;27;45417;-56
2022/01/24 03:52:22;;;;;;;;;10.50;10.00;;;;;20.64;29.01;102586.72;5076586;27;46958;-54
2022/01/24 03:54:49;;;;;;;;;14.75;11.00;;;;;20.65;28.60;102591.06;5076626;27;45409;-52
2022/01/24 03:57:17;;;;;;;;;11.50;11.00;;;;;20.66;28.52;102591.06;5076864;27;45417;-53
2022/01/24 03:59:43;;;;;;;;;10.75;10.50;;;;;20.67;28.81;102584.00;5075601;28;45451;-54
2022/01/24 04:02:10;;;;;;;;;14.50;11.50;;;;;20.67;28.78;102579.56;5076637;28;46657;-59
2022/01/24 04:04:36;;;;;;;;;14.25;10.50;;;;;20.68;28.86;102581.31;5076499;27;45873;-57
2022/01/24 04:07:02;;;;;;;;;10.50;10.50;;;;;20.68;28.81;102581.31;5076481;28;45418;-58
2022/01/24 04:09:27;;;;;;;;;14.75;11.00;;;;;20.68;28.81;102572.56;5075903;28;45393;-53
2022/01/24 04:11:56;;;;;;;;;13.50;11.50;;;;;20.67;28.75;102566.41;5076080;27;46300;-56
2022/01/24 04:17:06;;;;;;;;;13.00;12.50;;;;;20.68;28.58;102568.13;5076590;27;45223;-60
2022/01/24 04:22:17;;;;;;;;;11.25;9.50;;;;;20.66;28.47;102575.25;5076315;27;45268;-55
2022/01/24 04:24:44;;;;;;;;;16.00;13.75;;;;;20.66;28.69;102569.09;5076322;27;45915;-53
2022/01/24 04:27:10;;;;;;;;;12.25;10.75;;;;;20.64;28.76;102570.91;5076452;27;45189;-56
2022/01/24 04:29:36;;;;;;;;;12.00;12.00;;;;;20.66;28.56;102574.38;5076669;27;45278;-57
2022/01/24 04:32:03;;;;;;;;;11.25;10.25;;;;;20.64;28.45;102574.41;5076124;27;45457;-56
2022/01/24 04:34:29;;;;;;;;;12.50;11.00;;;;;20.64;28.62;102573.53;5076360;28;45862;-55
2022/01/24 04:36:55;;;;;;;;;10.50;9.50;;;;;20.63;28.46;102572.69;5076394;27;45338;-53
2022/01/24 04:39:20;;;;;;;;;14.25;11.50;;;;;20.62;28.70;102581.50;5076581;27;45893;-49
2022/01/24 04:41:49;;;;;;;;;12.50;10.75;;;;;20.62;28.67;102578.84;5076025;27;45295;-50
2022/01/24 04:47:14;;;;;;;;;9.25;9.25;;;;;20.61;29.08;102582.41;5076696;28;45373;-54
2022/01/24 04:55:08;;;;;;;;;13.50;12.00;;;;;20.56;29.09;102579.00;5075938;28;45331;-54
2022/01/24 04:57:34;;;;;;;;;10.25;10.25;;;;;20.54;29.06;102575.59;5076213;27;45318;-54
2022/01/24 05:00:00;;;;;;;;;11.50;9.50;;;;;20.52;28.78;102572.97;5076639;27;45485;-57
2022/01/24 05:02:26;;;;;;;;;11.25;11.25;;;;;20.52;28.63;102572.97;5075782;27;45429;-56
2022/01/24 05:04:53;;;;;;;;;10.75;10.75;;;;;20.50;28.91;102573.94;5075834;27;45215;-54
2022/01/24 05:07:19;;;;;;;;;15.75;13.00;;;;;20.48;28.61;102571.34;5075985;27;45362;-56
2022/01/24 05:23:38;;;;;;;;;13.25;11.00;;;;;20.39;28.78;102575.09;5077941;27;45802;-58
2022/01/24 05:26:06;;;;;;;;;13.25;11.00;;;;;20.38;28.59;102581.25;5078821;27;45442;-51
2022/01/24 05:28:33;;;;;;;;;12.75;12.25;;;;;20.37;29.18;102584.78;5079559;28;45422;-57
2022/01/24 05:30:59;;;;;;;;;10.75;10.25;;;;;20.36;29.06;102580.44;5079650;27;45426;-56
2022/01/24 05:33:26;;;;;;;;;10.00;10.00;;;;;20.34;28.90;102582.22;5078821;27;46199;-58
2022/01/24 05:35:51;;;;;;;;;13.50;11.25;;;;;20.32;28.74;102570.91;5079015;27;45224;-55
2022/01/24 05:38:17;;;;;;;;;11.75;11.00;;;;;20.32;28.79;102576.16;5079021;27;45262;-51
2022/01/24 05:40:43;;;;;;;;;11.00;9.00;;;;;20.28;28.93;102571.88;5079134;27;45196;-54
2022/01/24 05:43:09;;;;;;;;;11.00;10.25;;;;;20.25;28.87;102564.06;5077431;27;47590;-57
2022/01/24 05:45:34;;;;;;;;;10.50;10.50;;;;;20.26;28.79;102571.06;5077604;27;45322;-53
2022/01/24 05:48:00;;;;;;;;;9.00;9.00;;;;;20.22;29.16;102558.91;5079185;27;45448;-55
2022/01/24 05:50:26;;;;;;;;;12.75;11.00;;;;;20.19;29.26;102558.97;5078989;27;45877;-53
2022/01/24 05:52:51;;;;;;;;;13.00;12.00;;;;;20.18;28.83;102559.88;5078446;27;46119;-57
2022/01/24 05:55:17;;;;;;;;;13.00;11.50;;;;;20.15;29.19;102562.56;5078636;27;45413;-58
2022/01/24 05:57:43;;;;;;;;;10.50;10.25;;;;;20.14;28.81;102563.47;5078685;27;45345;-53
2022/01/24 06:00:10;;;;;;;;;13.75;12.25;;;;;20.07;28.79;102561.00;5077606;28;45261;-51
2022/01/24 06:02:36;;;;;;;;;11.00;11.00;;;;;20.09;29.07;102568.84;5078356;27;46191;-58
2022/01/24 06:05:02;;;;;;;;;12.75;11.00;;;;;20.08;28.93;102564.50;5078638;27;45245;-52
2022/01/24 06:07:27;;;;;;;;;10.50;10.50;;;;;20.09;29.02;102558.31;5078689;27;45265;-52
2022/01/24 06:09:52;;;;;;;;;15.75;14.25;;;;;20.12;29.18;102562.69;5078743;27;45292;-56
2022/01/24 06:12:18;;;;;;;;;11.25;11.25;;;;;20.14;28.93;102561.72;5078056;27;45496;-54
2022/01/24 06:14:43;;;;;;;;;10.50;10.50;;;;;20.17;28.92;102564.28;5078233;27;45334;-50
2022/01/24 06:17:10;;;;;;;;;9.50;9.50;;;;;20.21;29.36;102565.91;5078444;27;45223;-58
2022/01/24 06:19:36;;;;;;;;;8.75;8.75;;;;;20.23;29.37;102565.84;5078520;27;45280;-48
2022/01/24 06:22:01;;;;;;;;;11.50;10.50;;;;;20.29;29.34;102562.19;5077101;28;46861;-56
2022/01/24 06:24:27;;;;;;;;;9.00;9.00;;;;;20.33;28.79;102571.75;5078141;28;45439;-50
2022/01/24 06:26:52;;;;;;;;;12.00;10.00;;;;;20.35;29.08;102565.53;5078285;27;45366;-50
2022/01/24 06:29:18;;;;;;;;;9.75;7.25;;;;;20.41;28.69;102580.31;5078369;27;45578;-57
2022/01/24 06:31:44;;;;;;;;;13.75;10.00;;;;;20.44;28.81;102574.13;5077893;27;45614;-51
2022/01/24 06:34:09;;;;;;;;;10.50;9.25;;;;;20.47;29.07;102585.41;5078085;27;45327;-58
2022/01/24 06:36:35;;;;;;;;;9.25;9.25;;;;;20.50;28.67;102584.47;5078489;27;45382;-53
2022/01/24 06:39:01;;;;;;;;;14.00;12.50;;;;;20.49;29.21;102583.63;5077139;28;45324;-49
2022/01/24 06:41:32;;;;;;;;;13.25;9.50;;;;;20.54;28.93;102576.44;5077974;27;45216;-51
2022/01/24 06:43:57;;;;;;;;;11.50;11.00;;;;;20.58;28.91;102574.56;5077945;27;45421;-54
2022/01/24 06:46:23;;;;;;;;;12.75;11.75;;;;;20.58;28.89;102582.47;5077675;27;45378;-52
2022/01/24 06:48:48;;;;;;;;;12.25;12.00;;;;;20.59;28.57;102584.22;5077985;27;45424;-53
2022/01/24 06:51:14;;;;;;;;;9.50;9.25;;;;;20.60;28.73;102575.41;5077730;27;46247;-59
2022/01/24 06:53:41;;;;;;;;;13.75;11.25;;;;;20.62;29.18;102584.13;5077666;27;45339;-54
2022/01/24 06:56:07;;;;;;;;;9.25;9.25;;;;;20.63;28.94;102591.13;5078191;27;45307;-55
2022/01/24 06:58:34;;;;;;;;;11.50;9.25;;;;;20.62;28.47;102578.84;5078324;27;45622;-55
2022/01/24 07:01:00;;;;;;;;;6.00;6.00;;;;;20.66;28.88;102590.16;5077599;27;45487;-49
2022/01/24 07:03:25;;;;;;;;;10.00;9.50;;;;;20.66;28.41;102584.91;5077630;27;45291;-49
2022/01/24 07:05:51;;;;;;;;;11.25;11.00;;;;;20.66;28.97;102591.06;5077577;28;45350;-59
2022/01/24 07:08:16;;;;;;;;;11.25;10.25;;;;;20.67;28.67;102586.63;5077733;27;45481;-58
2022/01/24 07:10:41;;;;;;;;;13.25;11.25;;;;;20.67;28.74;102589.25;5077407;27;46471;-57
2022/01/24 07:13:07;;;;;;;;;12.00;11.25;;;;;20.66;28.42;102591.06;5076292;28;45388;-59
2022/01/24 07:15:36;;;;;;;;;11.25;10.50;;;;;20.65;28.88;102589.31;5077573;27;45280;-56
2022/01/24 07:20:35;;;;;;;;;10.00;9.25;;;;;20.64;28.41;102590.22;5077314;27;45287;-56
2022/01/24 07:23:02;;;;;;;;;12.75;10.25;;;;;20.63;28.80;102590.25;5077247;27;45945;-56
2022/01/24 07:25:28;;;;;;;;;13.75;11.25;;;;;20.58;28.52;102589.53;5077440;27;45441;-59
2022/01/24 07:27:53;;;;;;;;;11.75;11.75;;;;;20.64;28.62;102597.25;5077549;28;45364;-56
2022/01/24 07:30:19;;;;;;;;;11.75;10.25;;;;;20.63;28.78;102593.75;5077318;27;46386;-58
2022/01/24 07:32:44;;;;;;;;;12.00;10.00;;;;;20.62;28.79;102589.41;5077288;27;45227;-57
2022/01/24 07:35:10;;;;;;;;;10.50;10.00;;;;;20.61;28.29;102592.94;5077434;27;45231;-52
2022/01/24 07:37:35;;;;;;;;;10.50;6.50;;;;;20.59;28.45;102584.22;5077751;27;45476;-55
2022/01/24 07:40:02;;;;;;;;;11.00;10.50;;;;;20.61;29.00;102592.94;5076926;27;45631;-57
2022/01/24 07:42:52;;;;;;;;;11.00;10.00;;;;;20.60;28.88;102591.22;5076472;27;45885;-51
2022/01/24 07:45:13;;;;;;;;;11.00;10.25;;;;;20.59;28.91;102589.47;5076830;27;45311;-54
2022/01/24 07:47:38;;;;;;;;;11.25;9.50;;;;;20.58;28.82;102597.44;5077574;27;45491;-58
2022/01/24 07:50:04;;;;;;;;;8.50;8.50;;;;;20.57;28.88;102590.44;5075541;28;47129;-58
2022/01/24 07:52:29;;;;;;;;;11.00;10.25;;;;;20.53;28.72;102585.25;5076889;27;45326;-57
2022/01/24 07:54:54;;;;;;;;;9.00;8.00;;;;;20.53;29.00;102598.41;5077281;27;45362;-55
2022/01/24 07:57:20;;;;;;;;;8.25;7.50;;;;;20.51;29.11;102596.72;5075920;28;45510;-59
2022/01/24 07:59:45;;;;;;;;;13.50;10.00;;;;;20.52;28.65;102598.47;5076712;27;46202;-59
2022/01/24 08:02:10;;;;;;;;;8.25;8.25;;;;;20.50;28.87;102600.28;5076633;27;45414;-51
2022/01/24 08:04:36;;;;;;;;;10.00;10.00;;;;;20.49;28.58;102604.69;5077215;28;45320;-56
2022/01/24 08:07:01;;;;;;;;;12.00;10.75;;;;;20.48;29.09;102609.97;5077112;27;45601;-58
2022/01/24 08:09:27;;;;;;;;;10.50;10.00;;;;;20.47;29.04;102613.50;5076536;27;46471;-59
2022/01/24 08:11:52;;;;;;;;;10.50;9.00;;;;;20.46;28.86;102606.50;5075003;27;45362;-58
2022/01/24 08:14:19;;;;;;;;;10.75;10.75;;;;;20.45;29.13;102612.72;5076743;27;45552;-59
2022/01/24 08:16:44;;;;;;;;;10.50;9.00;;;;;20.43;29.17;102610.09;5077031;28;45313;-58
2022/01/24 08:19:10;;;;;;;;;15.25;9.50;;;;;20.43;28.81;102606.63;5075536;28;46104;-59
2022/01/24 08:21:35;;;;;;;;;9.75;8.75;;;;;20.39;28.54;102606.69;5076491;27;45278;-57
2022/01/24 08:24:02;;;;;;;;;15.75;12.00;;;;;20.40;28.97;102610.16;5075306;28;45206;-52
2022/01/24 08:26:28;;;;;;;;;13.00;9.00;;;;;20.37;28.62;102613.75;5076617;27;45420;-60
2022/01/24 08:28:53;;;;;;;;;6.00;6.00;;;;;20.37;28.58;102613.75;5074913;27;47695;-58
2022/01/24 08:31:19;;;;;;;;;12.25;10.25;;;;;20.36;28.90;102619.94;5076180;27;45394;-55
2022/01/24 08:33:45;;;;;;;;;13.75;10.25;;;;;20.36;29.00;102621.72;5076318;27;45303;-56
2022/01/24 08:36:11;;;;;;;;;10.00;9.25;;;;;20.33;28.78;102614.78;5077036;27;45384;-57
2022/01/24 08:38:36;;;;;;;;;10.25;8.00;;;;;20.32;28.73;102625.31;5076249;27;46469;-57
2022/01/24 08:41:10;;;;;;;;;12.75;11.25;;;;;20.30;28.48;102627.13;5075063;28;45831;-54
2022/01/24 08:44:20;;;;;;;;;13.50;11.75;;;;;20.25;28.71;102627.25;5076071;27;45371;-57
2022/01/24 08:46:24;;;;;;;;;12.50;12.00;;;;;20.24;28.44;102628.16;5073191;27;45424;-58
2022/01/24 08:48:50;;;;;;;;;10.00;10.00;;;;;20.22;29.08;102628.19;5075913;27;46269;-57
2022/01/24 08:51:16;;;;;;;;;12.50;11.75;;;;;20.19;28.95;102632.69;5075860;27;45449;-57
2022/01/24 08:53:42;;;;;;;;;15.25;12.25;;;;;20.17;28.85;102627.47;5076418;27;45405;-57
2022/01/24 08:56:07;;;;;;;;;11.00;11.00;;;;;20.15;28.72;102631.91;5079908;27;45559;-58
2022/01/24 08:58:35;;;;;;;;;10.75;9.75;;;;;20.13;28.62;102632.81;5079795;27;46471;-58
2022/01/24 09:01:00;;;;;;;;;11.75;10.00;;;;;20.13;29.14;102633.69;5079637;27;45329;-58
2022/01/24 09:03:29;;;;;;;;;8.75;7.25;;;;;20.16;28.95;102633.63;5079826;27;45346;-56
2022/01/24 09:05:56;;;;;;;;;15.75;9.75;;;;;20.19;28.69;102640.56;5079788;27;45569;-59
2022/01/24 09:08:25;;;;;;;;;10.25;8.50;;;;;20.22;29.20;102643.16;5080399;27;46438;-56
2022/01/24 09:10:52;;;;;;;;;9.00;8.75;;;;;20.25;28.63;102648.31;5079304;27;45914;-58
2022/01/24 09:13:19;;;;;;;;;13.00;12.00;;;;;20.27;28.76;102638.59;5079605;27;45325;-57
2022/01/24 09:15:45;;;;;;;;;11.00;11.00;;;;;20.31;28.84;102642.03;5079596;27;45642;-53
2022/01/24 09:18:10;;;;;;;;;11.25;11.25;;;;;20.36;29.28;102643.63;5079466;27;45601;-56
2022/01/24 09:20:38;;;;;;;;;12.00;11.00;;;;;20.38;28.64;102633.94;5079365;27;45260;-54
2022/01/24 09:23:05;;;;;;;;;13.25;10.00;;;;;20.43;29.07;102641.72;5079291;27;45472;-48
2022/01/24 09:25:30;;;;;;;;;12.25;8.00;;;;;20.45;28.75;102645.16;5079468;27;45431;-54
2022/01/24 09:27:56;;;;;;;;;11.75;9.75;;;;;20.49;28.62;102640.69;5079062;27;46300;-52
2022/01/24 09:30:23;;;;;;;;;9.75;9.75;;;;;20.52;28.44;102641.47;5079071;27;45436;-53
2022/01/24 09:32:49;;;;;;;;;13.25;11.00;;;;;20.57;28.56;102643.13;5079207;27;45318;-57
2022/01/24 09:35:16;;;;;;;;;10.00;8.75;;;;;20.60;28.89;102643.03;5079739;27;45991;-54
2022/01/24 09:37:43;;;;;;;;;6.25;6.00;;;;;20.62;28.48;102642.09;5079172;27;48341;-57
2022/01/24 09:40:12;;;;;;;;;13.25;9.75;;;;;20.61;28.43;102643.00;5078857;28;45987;-56
2022/01/24 09:42:38;;;;;;;;;12.50;11.00;;;;;20.65;28.50;102652.56;5078930;27;45255;-57
2022/01/24 09:45:04;;;;;;;;;6.00;5.25;;;;;20.66;28.67;102643.75;5079135;27;45282;-60
2022/01/24 09:47:30;;;;;;;;;10.75;10.75;;;;;20.67;28.34;102639.31;5078819;27;45430;-58
2022/01/24 09:49:56;;;;;;;;;12.50;8.25;;;;;20.68;28.81;102644.53;5078853;27;45882;-51
2022/01/24 09:52:22;;;;;;;;;14.25;11.00;;;;;20.69;28.70;102645.44;5078816;27;45464;-58
2022/01/24 09:54:47;;;;;;;;;12.25;12.25;;;;;20.70;28.67;102655.06;5079066;27;45390;-54
2022/01/24 09:57:13;;;;;;;;;9.25;9.25;;;;;20.72;27.97;102652.38;5078995;27;45381;-57
2022/01/24 09:59:38;;;;;;;;;10.25;8.75;;;;;20.72;28.47;102650.63;5077293;28;45406;-57
2022/01/24 10:02:04;;;;;;;;;10.25;9.75;;;;;20.73;28.26;102648.84;5078803;27;45401;-57
2022/01/24 10:04:29;;;;;;;;;9.50;9.50;;;;;20.73;28.27;102651.47;5078669;27;45458;-56
2022/01/24 10:07:15;;;;;;;;;11.00;10.25;;;;;20.73;27.93;102652.31;5060044;28;46099;-56
2022/01/24 10:09:42;;;;;;;;;10.25;10.25;;;;;20.73;27.90;102646.19;5078558;27;45845;-57
2022/01/24 10:17:34;;;;;;;;;12.50;12.50;;;;;20.73;27.98;102648.84;5078220;27;45891;-53
2022/01/24 10:20:21;;;;;;;;;14.25;11.50;;;;;20.70;28.06;102642.72;5078210;27;45992;-56
2022/01/24 10:23:26;;;;;;;;;10.00;10.00;;;;;20.69;28.21;102638.38;5078475;27;45243;-52
2022/01/24 10:25:55;;;;;;;;;14.75;11.75;;;;;20.69;28.24;102634.88;5057173;27;45648;-53
2022/01/24 10:28:25;;;;;;;;;12.75;10.75;;;;;20.68;28.01;102636.63;5078095;27;46529;-57
2022/01/24 10:31:11;;;;;;;;;12.25;11.25;;;;;20.65;28.30;102636.75;5078068;27;45357;-54
2022/01/24 10:36:53;;;;;;;;;10.00;10.00;;;;;20.66;28.20;102638.47;5076999;28;45394;-50
2022/01/24 10:39:43;;;;;;;;;10.75;9.25;;;;;20.65;28.58;102636.75;5077769;27;47193;-51
2022/01/24 10:42:24;;;;;;;;;11.75;10.50;;;;;20.65;28.21;102636.75;5077952;27;45871;-58
2022/01/24 10:44:49;;;;;;;;;15.50;11.25;;;;;20.65;28.09;102634.09;5077889;27;45176;-55
2022/01/24 10:47:28;;;;;;;;;11.75;10.50;;;;;20.65;28.38;102628.84;5078441;27;45220;-56
2022/01/24 10:49:54;;;;;;;;;10.50;10.50;;;;;20.63;28.41;102627.13;5077802;27;47500;-56
2022/01/24 10:52:29;;;;;;;;;8.25;7.25;;;;;20.63;28.60;102622.75;5077786;27;45948;-58
2022/01/24 10:55:16;;;;;;;;;13.75;12.75;;;;;20.61;28.54;102619.28;5077926;27;45409;-53
2022/01/24 10:57:43;;;;;;;;;15.25;12.75;;;;;20.57;28.11;102616.78;5078115;27;45686;-54
2022/01/24 11:00:23;;;;;;;;;12.75;9.50;;;;;20.57;28.16;102617.63;5077688;27;46482;-57
2022/01/24 11:02:51;;;;;;;;;10.50;9.50;;;;;20.58;28.33;102618.50;5077967;28;45973;-58
2022/01/24 11:05:19;;;;;;;;;13.25;11.75;;;;;20.58;28.31;102611.44;5078127;27;45271;-59
2022/01/24 11:08:02;;;;;;;;;12.25;10.25;;;;;20.58;28.36;102611.44;5078198;27;45636;-57
2022/01/24 11:10:38;;;;;;;;;13.00;11.00;;;;;20.61;28.44;102611.38;5076016;28;48043;-58
2022/01/24 11:13:05;;;;;;;;;11.50;11.00;;;;;20.66;28.55;102612.13;5077267;28;45278;-58
2022/01/24 11:15:32;;;;;;;;;10.00;10.00;;;;;20.70;28.94;102607.63;5077550;27;45214;-56
2022/01/24 11:17:58;;;;;;;;;11.50;11.00;;;;;20.74;28.51;102609.28;5076847;27;45438;-51
2022/01/24 11:20:30;;;;;;;;;15.00;14.00;;;;;20.78;28.58;102604.81;5077334;27;45432;-53
2022/01/24 11:22:59;;;;;;;;;8.75;8.00;;;;;20.80;28.47;102592.44;5077530;27;45221;-56
2022/01/24 11:25:31;;;;;;;;;14.25;11.00;;;;;20.83;28.66;102593.25;5077376;27;45394;-55
2022/01/24 11:27:57;;;;;;;;;16.50;10.25;;;;;20.84;28.92;102587.03;5093333;27;45343;-57
2022/01/24 11:30:28;;;;;;;;;10.25;10.00;;;;;20.89;28.85;102591.31;5077007;27;45351;-51
2022/01/24 11:32:58;;;;;;;;;14.00;11.00;;;;;20.89;28.78;102592.16;5076999;27;45801;-55
2022/01/24 11:35:34;;;;;;;;;13.50;9.50;;;;;20.92;28.58;102589.44;5077157;27;45445;-56
2022/01/24 11:38:00;;;;;;;;;12.00;9.00;;;;;20.94;28.61;102595.53;5077349;27;45478;-57
2022/01/24 11:40:27;;;;;;;;;12.00;11.00;;;;;20.96;28.49;102591.09;5076935;27;45389;-55
2022/01/24 11:42:52;;;;;;;;;14.75;11.75;;;;;21.01;28.87;102585.69;5077029;27;45341;-59
2022/01/24 11:45:42;;;;;;;;;10.50;9.00;;;;;21.03;28.40;102586.50;5077525;28;45374;-58
2022/01/24 11:48:18;;;;;;;;;10.50;10.50;;;;;21.04;28.20;102585.59;5077009;27;45422;-56
2022/01/24 11:50:55;;;;;;;;;11.75;11.75;;;;;21.05;28.27;102576.78;5076683;27;46208;-56
2022/01/24 11:53:22;;;;;;;;;14.50;10.75;;;;;21.08;28.57;102581.09;5076928;27;45850;-57
2022/01/24 11:55:47;;;;;;;;;11.00;11.00;;;;;21.09;28.66;102585.47;5076128;27;45271;-56
2022/01/24 11:58:30;;;;;;;;;11.50;11.25;;;;;21.11;28.21;102581.03;5075732;27;45554;-59
2022/01/24 12:01:01;;;;;;;;;8.50;8.00;;;;;21.12;28.20;102580.97;5076793;27;45266;-60
2022/01/24 12:03:27;;;;;;;;;11.25;9.25;;;;;21.13;28.68;102579.19;5076626;27;45403;-59
2022/01/24 12:06:09;;;;;;;;;15.00;11.75;;;;;21.15;28.64;102580.00;5076880;27;45340;-60
2022/01/24 12:08:42;;;;;;;;;13.25;9.75;;;;;21.17;28.67;102578.19;5076724;27;45393;-61
2022/01/24 12:11:23;;;;;;;;;11.25;10.50;;;;;21.19;28.73;102578.13;5075208;28;46101;-56
2022/01/24 12:13:53;;;;;;;;;12.00;9.50;;;;;21.21;28.74;102576.31;5075316;27;45414;-57
2022/01/24 12:16:20;;;;;;;;;25.50;19.50;;;;;21.22;28.73;102578.03;5075538;27;45352;-56
2022/01/24 12:18:52;;;;;;;;;26.50;21.50;;;;;21.20;27.51;102575.47;5076731;27;45394;-57
2022/01/24 12:21:24;;;;;;;;;34.50;31.50;;;;;21.15;27.28;102577.34;5075474;27;45451;-57
2022/01/24 12:23:58;;;;;;;;;37.25;32.00;;;;;21.06;27.07;102575.00;5075754;27;45402;-58
2022/01/24 12:26:35;;;;;;;;;33.50;28.75;;;;;20.93;27.06;102567.47;5076428;27;45388;-50
2022/01/24 12:29:13;;;;;;;;;33.00;27.00;;;;;20.87;27.15;102574.69;5078519;27;45410;-59
2022/01/24 12:32:19;;;;;;;;;33.75;29.50;;;;;20.83;26.99;102571.28;5079736;27;45341;-56
2022/01/24 12:34:45;;;;;;;;;23.00;21.25;;;;;20.78;27.33;102568.78;5079979;27;45906;-58
2022/01/24 12:37:22;;;;;;;;;19.75;17.50;;;;;20.78;27.49;102573.19;5079936;27;45432;-54
2022/01/24 12:39:53;;;;;;;;;20.00;19.00;;;;;20.79;27.46;102570.50;5080363;27;45718;-57
2022/01/24 12:42:31;;;;;;;;;18.25;17.00;;;;;20.82;27.45;102570.44;5079928;27;47170;-59
2022/01/24 12:47:48;;;;;;;;;29.25;28.25;;;;;20.73;27.16;102564.50;5079279;27;45347;-54
2022/01/24 12:50:14;;;;;;;;;30.25;27.25;;;;;20.63;26.95;102558.63;5080010;27;45313;-57
2022/01/24 12:52:39;;;;;;;;;28.75;25.50;;;;;20.46;26.90;102556.47;5078198;28;47085;-58
2022/01/24 12:55:07;;;;;;;;;18.00;15.25;;;;;20.33;27.69;102555.94;5079483;27;45185;-56
2022/01/24 12:57:37;;;;;;;;;25.00;19.00;;;;;20.37;27.77;102553.19;5079687;27;45477;-58
2022/01/24 13:00:07;;;;;;;;;32.50;29.00;;;;;20.45;26.89;102560.03;5079910;27;45378;-59
2022/01/24 13:02:34;;;;;;;;;27.00;23.75;;;;;20.34;26.66;102560.31;5078012;27;47533;-57
2022/01/24 13:05:16;;;;;;;;;30.25;27.75;;;;;20.14;26.90;102560.84;5079396;27;45439;-58
2022/01/24 13:07:49;;;;;;;;;23.25;21.25;;;;;19.93;26.55;102553.47;5078122;27;45451;-57
2022/01/24 13:10:18;;;;;;;;;34.50;30.50;;;;;19.72;26.87;102557.47;5079526;27;45427;-56
2022/01/24 13:12:44;;;;;;;;;28.75;28.50;;;;;19.57;26.77;102560.47;5078926;27;45680;-57
2022/01/24 13:15:23;;;;;;;;;28.50;26.50;;;;;19.41;27.35;102554.69;5079243;27;45382;-57